Time;durP1;ratioP1;P1;durP2;ratioP2;P2;SDS_P1;SDS_P2;PMS_P1;PMS_P2;Temp;Humidity;BMP_temperature;BMP_pressure;BME280_temperature;BME280_humidity;BME280_pressure;Samples;Min_cycle;Max_cycle;Signal;HPM_P1;HPM_P2
2021/04/19 00:02:04;;;;;;;41.57;29.87;;;10.20;88.50;;;;;;5049317;28;20442;-48
2021/04/19 00:04:31;;;;;;;44.80;32.63;;;10.20;88.50;;;;;;5050689;28;20930;-48
2021/04/19 00:06:58;;;;;;;48.10;32.77;;;10.20;88.50;;;;;;5050180;28;20462;-48
2021/04/19 00:09:24;;;;;;;44.17;33.30;;;10.20;88.50;;;;;;5049781;28;20461;-48
2021/04/19 00:11:52;;;;;;;45.60;31.60;;;10.20;88.60;;;;;;5052093;28;20477;-48
2021/04/19 00:14:18;;;;;;;48.30;31.60;;;10.20;88.60;;;;;;5048557;28;20446;-48
2021/04/19 00:16:45;;;;;;;43.50;32.80;;;10.20;88.60;;;;;;5051852;28;20590;-48
2021/04/19 00:19:11;;;;;;;49.97;33.73;;;10.20;88.60;;;;;;5048719;28;20486;-47
2021/04/19 00:21:37;;;;;;;51.97;34.03;;;10.20;88.70;;;;;;5044860;28;20455;-48
2021/04/19 00:24:04;;;;;;;48.17;33.60;;;10.20;88.70;;;;;;5050606;28;20461;-48
2021/04/19 00:26:31;;;;;;;51.40;33.17;;;10.30;88.50;;;;;;5049328;28;20474;-48
2021/04/19 00:28:57;;;;;;;43.93;32.50;;;10.30;87.90;;;;;;5049685;28;20519;-48
2021/04/19 00:31:23;;;;;;;50.00;34.53;;;10.20;88.20;;;;;;5051974;28;20463;-48
2021/04/19 00:33:50;;;;;;;46.90;33.70;;;10.20;88.30;;;;;;5051243;28;20971;-48
2021/04/19 00:36:16;;;;;;;43.30;31.70;;;10.20;88.50;;;;;;5048018;28;21217;-48
2021/04/19 00:38:42;;;;;;;49.20;34.60;;;10.20;88.50;;;;;;5048889;28;21017;-48
2021/04/19 00:41:11;;;;;;;49.10;32.67;;;10.20;88.60;;;;;;5049497;28;20462;-48
2021/04/19 00:43:38;;;;;;;44.40;32.00;;;10.10;88.60;;;;;;5050003;28;20523;-48
2021/04/19 00:46:06;;;;;;;45.40;31.20;;;10.10;88.60;;;;;;5049790;28;20450;-48
2021/04/19 00:48:33;;;;;;;47.10;33.97;;;10.10;88.70;;;;;;5051343;28;20454;-48
2021/04/19 00:51:01;;;;;;;47.00;31.83;;;10.10;88.70;;;;;;5049006;28;20463;-48
2021/04/19 00:53:29;;;;;;;46.47;33.43;;;10.10;88.70;;;;;;5050789;28;20454;-48
2021/04/19 00:55:56;;;;;;;45.10;32.60;;;10.10;88.80;;;;;;5051633;28;20446;-48
2021/04/19 00:58:25;;;;;;;47.03;32.90;;;10.20;88.80;;;;;;5047689;28;20465;-48
2021/04/19 01:00:52;;;;;;;44.80;33.00;;;10.20;88.80;;;;;;5062278;28;20469;-48
2021/04/19 01:03:19;;;;;;;47.90;32.83;;;10.20;88.70;;;;;;5047613;28;20533;-48
2021/04/19 01:05:46;;;;;;;45.80;32.97;;;10.20;88.80;;;;;;5049354;28;20524;-48
2021/04/19 01:08:12;;;;;;;45.17;30.10;;;10.30;88.80;;;;;;5050326;28;20465;-48
2021/04/19 01:10:41;;;;;;;47.40;31.60;;;10.30;88.40;;;;;;5047781;28;20451;-48
2021/04/19 01:13:07;;;;;;;45.70;30.10;;;10.20;88.60;;;;;;5047897;28;20461;-48
2021/04/19 01:15:34;;;;;;;43.10;29.90;;;10.20;88.80;;;;;;5045853;28;20500;-47
2021/04/19 01:18:01;;;;;;;43.13;31.63;;;10.20;88.90;;;;;;5050162;28;20476;-48
2021/04/19 01:20:30;;;;;;;43.53;32.33;;;10.20;88.90;;;;;;5048127;28;21254;-48
2021/04/19 01:22:58;;;;;;;47.57;32.47;;;10.20;88.90;;;;;;5065032;28;20455;-48
2021/04/19 01:25:28;;;;;;;43.93;30.60;;;10.20;89.10;;;;;;5049826;28;20889;-48
2021/04/19 01:27:55;;;;;;;45.13;32.27;;;10.20;89.10;;;;;;5048281;28;20466;-48
2021/04/19 01:30:24;;;;;;;48.73;32.23;;;10.20;89.20;;;;;;5047643;28;20463;-48
2021/04/19 01:32:51;;;;;;;47.13;32.40;;;10.20;89.20;;;;;;5050383;28;20549;-48
2021/04/19 01:35:18;;;;;;;41.77;29.97;;;10.20;89.30;;;;;;5048430;28;20450;-48
2021/04/19 01:37:44;;;;;;;44.80;31.30;;;10.20;89.10;;;;;;5048932;28;21006;-48
2021/04/19 01:40:14;;;;;;;40.13;30.20;;;10.20;89.20;;;;;;5049718;28;20509;-48
2021/04/19 01:42:40;;;;;;;45.07;29.87;;;10.20;89.20;;;;;;5047600;28;20461;-48
2021/04/19 01:45:07;;;;;;;43.23;30.47;;;10.10;89.20;;;;;;5048460;28;20955;-48
2021/04/19 01:47:34;;;;;;;44.20;30.37;;;10.10;89.30;;;;;;5046298;28;21009;-48
2021/04/19 01:50:07;;;;;;;46.20;32.20;;;10.10;89.30;;;;;;5050058;28;20467;-48
2021/04/19 01:52:33;;;;;;;42.87;31.60;;;10.10;89.30;;;;;;5048136;28;20458;-48
2021/04/19 01:55:00;;;;;;;45.63;32.37;;;10.20;89.20;;;;;;5050907;28;20458;-48
2021/04/19 01:57:26;;;;;;;42.73;31.93;;;10.20;89.20;;;;;;5049836;28;20446;-48
2021/04/19 01:59:53;;;;;;;43.87;30.60;;;10.20;89.20;;;;;;5046696;28;20492;-48
2021/04/19 02:02:27;;;;;;;47.80;32.70;;;10.20;89.20;;;;;;5046501;28;20948;-48
2021/04/19 02:05:19;;;;;;;49.80;33.47;;;10.20;89.10;;;;;;5047834;28;20503;-48
2021/04/19 02:07:59;;;;;;;44.97;33.10;;;10.20;89.10;;;;;;5048694;28;20469;-48
2021/04/19 02:10:45;;;;;;;48.43;36.23;;;10.10;89.10;;;;;;5049252;28;20814;-48
2021/04/19 02:13:21;;;;;;;45.90;32.40;;;10.10;89.20;;;;;;5048346;28;20482;-49
2021/04/19 02:15:57;;;;;;;45.20;32.10;;;10.10;89.20;;;;;;5046003;28;20478;-48
2021/04/19 02:18:29;;;;;;;54.00;34.87;;;10.10;89.20;;;;;;5047359;28;20458;-48
2021/04/19 02:21:06;;;;;;;49.67;32.37;;;10.10;89.30;;;;;;5046922;28;20899;-48
2021/04/19 02:23:36;;;;;;;48.43;33.50;;;10.10;89.30;;;;;;5047086;28;20442;-48
2021/04/19 02:26:14;;;;;;;49.77;33.10;;;10.00;89.40;;;;;;5050035;28;20450;-48
2021/04/19 02:28:47;;;;;;;52.97;34.87;;;10.00;89.50;;;;;;5047289;28;20547;-48
2021/04/19 02:31:15;;;;;;;48.80;34.53;;;10.00;89.40;;;;;;5048000;28;20455;-48
2021/04/19 02:33:44;;;;;;;52.90;34.83;;;10.00;89.50;;;;;;5045088;28;20465;-48
2021/04/19 02:36:11;;;;;;;51.53;33.87;;;10.00;89.50;;;;;;5049065;28;20463;-48
2021/04/19 02:38:40;;;;;;;52.27;35.17;;;10.10;89.40;;;;;;5046509;28;20439;-48
2021/04/19 02:41:11;;;;;;;55.63;36.50;;;10.10;89.20;;;;;;5047713;28;20500;-48
2021/04/19 02:43:41;;;;;;;58.10;37.50;;;10.10;89.20;;;;;;5045970;28;21016;-48
2021/04/19 02:46:08;;;;;;;59.20;34.43;;;10.00;89.30;;;;;;5048083;28;20443;-48
2021/04/19 02:48:39;;;;;;;51.30;35.37;;;10.00;89.40;;;;;;5048679;28;20501;-48
2021/04/19 02:51:08;;;;;;;56.77;36.57;;;10.00;89.40;;;;;;5048732;28;20450;-48
2021/04/19 02:53:40;;;;;;;54.50;35.83;;;10.00;89.50;;;;;;5061546;28;20450;-50
2021/04/19 02:56:08;;;;;;;54.43;36.10;;;10.00;89.40;;;;;;5051023;28;20538;-50
2021/04/19 02:58:48;;;;;;;54.83;36.17;;;10.00;89.50;;;;;;5045936;28;20542;-50
2021/04/19 03:01:26;;;;;;;58.37;36.87;;;10.00;89.40;;;;;;5049088;28;20465;-50
2021/04/19 03:03:56;;;;;;;56.00;35.80;;;10.00;89.50;;;;;;5046006;28;20450;-50
2021/04/19 03:06:24;;;;;;;56.57;36.47;;;10.00;89.40;;;;;;5048740;28;20975;-50
2021/04/19 03:08:54;;;;;;;49.73;35.30;;;10.00;89.40;;;;;;5045799;28;20489;-50
2021/04/19 03:11:29;;;;;;;51.93;36.37;;;10.10;89.40;;;;;;5046101;28;20461;-50
2021/04/19 03:13:58;;;;;;;54.70;37.43;;;10.00;89.30;;;;;;5047358;28;20442;-50
2021/04/19 03:16:28;;;;;;;59.30;38.00;;;10.00;89.40;;;;;;5046513;28;20478;-49
2021/04/19 03:18:56;;;;;;;52.10;36.43;;;10.00;89.40;;;;;;5045550;28;20566;-49
2021/04/19 03:21:27;;;;;;;63.67;37.10;;;10.10;89.20;;;;;;5048459;28;20458;-50
2021/04/19 03:23:57;;;;;;;55.73;36.57;;;10.10;89.30;;;;;;5045073;28;20462;-50
2021/04/19 03:26:27;;;;;;;56.73;38.17;;;10.00;89.20;;;;;;5046728;28;20951;-50
2021/04/19 03:28:55;;;;;;;58.23;38.80;;;10.00;89.20;;;;;;5046823;28;20460;-50
2021/04/19 03:31:26;;;;;;;57.13;38.80;;;10.00;89.10;;;;;;5051534;28;20453;-50
2021/04/19 03:33:57;;;;;;;52.70;36.27;;;10.00;88.90;;;;;;5052415;28;21028;-50
2021/04/19 03:36:26;;;;;;;60.70;40.20;;;10.00;89.10;;;;;;5049639;28;20990;-49
2021/04/19 03:38:54;;;;;;;56.33;37.20;;;10.00;89.00;;;;;;5050901;28;20446;-49
2021/04/19 03:41:21;;;;;;;60.80;39.60;;;10.00;89.10;;;;;;5052755;28;20446;-49
2021/04/19 03:43:58;;;;;;;53.47;37.47;;;10.00;89.20;;;;;;5052142;28;20936;-49
2021/04/19 03:46:27;;;;;;;55.97;37.53;;;10.00;89.00;;;;;;5050563;28;20488;-49
2021/04/19 03:49:04;;;;;;;65.57;39.33;;;10.00;89.00;;;;;;5050846;28;20454;-50
2021/04/19 03:51:32;;;;;;;60.13;39.00;;;9.90;89.00;;;;;;5049722;28;20850;-49
2021/04/19 03:54:00;;;;;;;55.70;36.70;;;9.90;89.00;;;;;;5048119;28;20451;-49
2021/04/19 03:56:30;;;;;;;52.27;34.97;;;9.90;89.00;;;;;;5043869;28;20462;-49
2021/04/19 03:59:00;;;;;;;59.73;36.87;;;9.90;89.00;;;;;;5042786;28;20968;-49
2021/04/19 04:01:27;;;;;;;62.00;38.37;;;9.90;89.10;;;;;;5042354;28;20457;-49
2021/04/19 04:03:54;;;;;;;61.10;36.67;;;9.90;89.20;;;;;;5043079;28;21013;-49
2021/04/19 04:06:22;;;;;;;59.03;37.30;;;9.90;89.20;;;;;;5042018;28;20462;-49
2021/04/19 04:08:51;;;;;;;62.00;36.00;;;9.90;89.20;;;;;;5042641;28;20473;-49
2021/04/19 04:11:18;;;;;;;59.50;39.63;;;9.90;89.10;;;;;;5043407;28;20550;-49
2021/04/19 04:13:45;;;;;;;69.70;36.80;;;9.90;89.10;;;;;;5055170;28;20475;-49
2021/04/19 04:16:11;;;;;;;64.77;35.90;;;9.90;88.90;;;;;;5045364;28;20496;-49
2021/04/19 04:18:38;;;;;;;53.43;35.60;;;9.90;88.90;;;;;;5040010;28;20821;-49
2021/04/19 04:21:06;;;;;;;62.17;37.07;;;9.90;89.00;;;;;;5054799;28;20486;-49
2021/04/19 04:23:32;;;;;;;63.53;37.80;;;9.80;89.00;;;;;;5038704;28;20462;-49
2021/04/19 04:25:59;;;;;;;58.90;35.93;;;9.80;89.10;;;;;;5058294;28;20473;-49
2021/04/19 04:28:26;;;;;;;55.93;34.20;;;9.80;89.10;;;;;;5040929;28;20468;-49
2021/04/19 04:30:52;;;;;;;60.77;35.43;;;9.80;89.10;;;;;;5044027;28;20462;-49
2021/04/19 04:33:18;;;;;;;64.23;38.07;;;9.80;89.20;;;;;;5055517;28;20961;-49
2021/04/19 04:35:45;;;;;;;57.50;35.40;;;9.80;89.20;;;;;;5040468;28;20470;-49
2021/04/19 04:38:11;;;;;;;60.70;37.50;;;9.80;89.20;;;;;;5043539;28;20470;-49
2021/04/19 04:40:38;;;;;;;55.80;35.97;;;9.80;89.20;;;;;;5040148;28;20489;-49
2021/04/19 04:43:11;;;;;;;65.40;40.50;;;9.70;89.30;;;;;;5038024;28;20991;-49
2021/04/19 04:45:38;;;;;;;54.90;38.60;;;9.80;89.40;;;;;;5040016;28;20454;-49
2021/04/19 04:48:22;;;;;;;56.93;37.90;;;9.80;89.20;;;;;;5048131;28;21028;-49
2021/04/19 04:50:56;;;;;;;57.40;37.27;;;9.80;89.30;;;;;;5054996;28;20467;-49
2021/04/19 04:53:27;;;;;;;59.40;35.83;;;9.80;89.20;;;;;;5041140;28;20463;-49
2021/04/19 04:55:55;;;;;;;57.87;38.03;;;9.80;89.30;;;;;;5045532;28;20458;-49
2021/04/19 04:58:23;;;;;;;59.60;39.63;;;9.80;89.10;;;;;;5055390;28;20479;-49
2021/04/19 05:00:51;;;;;;;59.03;38.20;;;9.80;89.20;;;;;;5044711;28;20482;-49
2021/04/19 05:03:18;;;;;;;58.23;36.83;;;9.80;89.10;;;;;;5040768;28;20473;-49
2021/04/19 05:05:45;;;;;;;54.13;36.20;;;9.80;89.00;;;;;;5037790;28;20555;-49
2021/04/19 05:08:13;;;;;;;51.47;38.60;;;9.80;88.80;;;;;;5038419;28;20458;-49
2021/04/19 05:10:40;;;;;;;51.07;36.00;;;9.80;88.90;;;;;;5040639;28;20959;-49
2021/04/19 05:13:13;;;;;;;53.03;37.50;;;9.80;88.90;;;;;;5040852;28;20473;-49
2021/04/19 05:15:47;;;;;;;60.63;37.10;;;9.80;88.90;;;;;;5045606;28;20478;-49
2021/04/19 05:18:14;;;;;;;53.30;36.70;;;9.80;88.70;;;;;;5035900;28;20473;-49
2021/04/19 05:20:42;;;;;;;56.47;34.93;;;9.80;88.70;;;;;;5039633;28;20482;-49
2021/04/19 05:23:10;;;;;;;51.20;35.73;;;9.90;88.50;;;;;;5037580;28;21034;-49
2021/04/19 05:25:42;;;;;;;54.67;36.17;;;9.90;88.50;;;;;;5040486;28;21181;-49
2021/04/19 05:28:09;;;;;;;54.73;39.13;;;9.90;88.50;;;;;;5039430;28;20469;-49
2021/04/19 05:30:36;;;;;;;45.73;33.93;;;9.90;88.40;;;;;;5040578;28;20815;-49
2021/04/19 05:33:04;;;;;;;55.63;32.07;;;9.90;88.30;;;;;;5045234;28;20461;-49
2021/04/19 05:35:33;;;;;;;45.33;33.00;;;10.00;88.30;;;;;;5040175;28;20462;-49
2021/04/19 05:38:01;;;;;;;44.27;31.40;;;10.00;88.00;;;;;;5039974;28;20466;-49
2021/04/19 05:40:30;;;;;;;48.70;30.40;;;10.00;87.90;;;;;;5040697;28;20486;-49
2021/04/19 05:42:57;;;;;;;45.43;29.40;;;10.00;88.00;;;;;;5036662;28;20462;-49
2021/04/19 05:45:24;;;;;;;46.10;31.17;;;10.00;87.90;;;;;;5045093;28;20459;-49
2021/04/19 05:47:52;;;;;;;37.93;27.40;;;10.00;88.00;;;;;;5046171;28;20468;-49
2021/04/19 05:50:23;;;;;;;38.20;26.00;;;10.00;88.20;;;;;;5049397;28;20482;-49
2021/04/19 05:52:52;;;;;;;28.80;22.10;;;10.00;88.00;;;;;;5048108;28;20543;-50
2021/04/19 05:55:22;;;;;;;32.37;22.50;;;10.10;87.90;;;;;;5047680;28;20458;-49
2021/04/19 05:58:10;;;;;;;33.47;23.10;;;10.20;87.80;;;;;;5052459;28;20457;-49
2021/04/19 06:00:48;;;;;;;25.80;20.57;;;10.20;87.70;;;;;;5042568;28;20495;-49
2021/04/19 06:03:23;;;;;;;26.60;19.70;;;10.30;87.70;;;;;;5049715;28;20450;-49
2021/04/19 06:06:15;;;;;;;21.57;17.40;;;10.30;87.50;;;;;;5044721;28;20498;-49
2021/04/19 06:08:57;;;;;;;20.30;16.10;;;10.30;87.60;;;;;;5044550;28;20454;-49
2021/04/19 06:11:29;;;;;;;21.20;15.63;;;10.40;87.30;;;;;;5060581;28;20497;-49
2021/04/19 06:13:57;;;;;;;19.70;14.50;;;10.40;87.10;;;;;;5044628;28;20465;-49
2021/04/19 06:16:25;;;;;;;23.00;16.00;;;10.40;86.90;;;;;;5045204;28;20494;-49
2021/04/19 06:18:52;;;;;;;18.00;13.47;;;10.40;86.90;;;;;;5043465;28;20467;-49
2021/04/19 06:21:19;;;;;;;18.60;14.03;;;10.50;86.60;;;;;;5046771;28;20528;-49
2021/04/19 06:23:45;;;;;;;17.40;14.00;;;10.50;86.60;;;;;;5046871;28;20931;-49
2021/04/19 06:26:12;;;;;;;15.33;12.80;;;10.50;86.70;;;;;;5042989;28;20587;-49
2021/04/19 06:28:39;;;;;;;17.30;13.70;;;10.60;86.70;;;;;;5049084;28;20451;-49
2021/04/19 06:31:23;;;;;;;16.17;12.87;;;10.60;86.50;;;;;;5047046;28;20707;-49
2021/04/19 06:34:05;;;;;;;14.80;11.73;;;10.70;86.30;;;;;;5048544;28;20477;-49
2021/04/19 06:36:36;;;;;;;15.80;11.97;;;10.70;85.80;;;;;;5047869;28;20959;-49
2021/04/19 06:39:05;;;;;;;17.50;14.80;;;10.70;85.80;;;;;;5030049;28;20474;-49
2021/04/19 06:41:31;;;;;;;15.53;12.37;;;10.70;85.60;;;;;;5049509;28;20450;-49
2021/04/19 06:43:59;;;;;;;17.80;13.37;;;10.70;85.70;;;;;;5046639;28;20490;-49
2021/04/19 06:46:33;;;;;;;19.17;14.17;;;10.70;85.90;;;;;;5047397;28;20466;-49
2021/04/19 06:49:01;;;;;;;19.53;12.77;;;10.70;86.00;;;;;;5049498;28;20469;-49
2021/04/19 06:51:29;;;;;;;21.07;14.77;;;10.70;86.20;;;;;;5063902;28;20538;-49
2021/04/19 06:53:58;;;;;;;18.70;13.70;;;10.70;86.30;;;;;;5047492;28;20451;-49
2021/04/19 06:56:27;;;;;;;18.50;14.60;;;10.80;86.20;;;;;;5046919;28;20518;-49
2021/04/19 06:58:57;;;;;;;19.47;14.53;;;10.80;86.20;;;;;;5060094;28;21039;-49
2021/04/19 07:01:26;;;;;;;20.83;13.90;;;10.80;86.20;;;;;;5045286;28;20541;-49
2021/04/19 07:04:00;;;;;;;16.33;14.00;;;10.90;85.90;;;;;;5051086;28;20508;-49
2021/04/19 07:06:32;;;;;;;18.67;13.90;;;11.00;85.80;;;;;;5048395;28;20456;-49
2021/04/19 07:09:12;;;;;;;18.97;14.13;;;11.00;85.70;;;;;;5041643;28;20470;-49
2021/04/19 07:11:40;;;;;;;26.80;18.63;;;11.10;85.20;;;;;;5047062;28;20438;-49
2021/04/19 07:14:08;;;;;;;23.03;17.83;;;11.20;84.40;;;;;;5049939;28;20445;-49
2021/04/19 07:16:35;;;;;;;18.00;13.17;;;11.30;84.20;;;;;;5046866;28;20502;-49
2021/04/19 07:19:05;;;;;;;17.33;14.23;;;11.30;84.20;;;;;;5048810;28;20446;-49
2021/04/19 07:21:33;;;;;;;18.73;14.37;;;11.40;84.20;;;;;;5047115;28;20455;-49
2021/04/19 07:24:03;;;;;;;15.37;11.40;;;11.50;84.00;;;;;;5047617;28;20462;-49
2021/04/19 07:26:30;;;;;;;12.93;10.60;;;11.60;83.80;;;;;;5044771;28;20455;-49
2021/04/19 07:28:57;;;;;;;14.80;11.20;;;11.60;83.50;;;;;;5049274;28;20875;-49
2021/04/19 07:31:24;;;;;;;12.17;10.33;;;11.70;83.40;;;;;;5047591;28;20545;-49
2021/04/19 07:33:53;;;;;;;11.27;9.10;;;11.90;83.40;;;;;;5047934;28;20459;-49
2021/04/19 07:36:28;;;;;;;14.60;10.07;;;12.10;82.60;;;;;;5059328;28;20862;-50
2021/04/19 07:38:59;;;;;;;12.47;8.93;;;12.20;82.10;;;;;;5042938;28;20461;-49
2021/04/19 07:41:49;;;;;;;9.40;7.80;;;12.30;81.70;;;;;;5046028;28;20490;-49
2021/04/19 07:44:53;;;;;;;11.90;8.30;;;12.40;80.80;;;;;;5044966;28;20917;-49
2021/04/19 07:47:23;;;;;;;12.70;7.60;;;12.60;80.30;;;;;;5045853;28;20911;-49
2021/04/19 07:50:09;;;;;;;9.50;7.40;;;12.80;79.20;;;;;;5043321;28;20787;-49
2021/04/19 07:52:57;;;;;;;8.53;7.60;;;12.90;78.00;;;;;;5045480;28;20466;-49
2021/04/19 07:55:34;;;;;;;10.30;7.27;;;12.90;76.20;;;;;;5041227;28;20827;-49
2021/04/19 07:58:21;;;;;;;9.83;8.00;;;13.00;74.90;;;;;;5041475;28;20488;-49
2021/04/19 08:00:48;;;;;;;10.37;7.97;;;13.00;75.00;;;;;;5042408;28;20497;-49
2021/04/19 08:03:16;;;;;;;11.57;7.33;;;13.10;75.00;;;;;;5057335;28;20457;-48
2021/04/19 08:05:52;;;;;;;8.87;7.07;;;13.20;75.10;;;;;;5045190;28;20462;-49
2021/04/19 08:08:29;;;;;;;10.10;6.90;;;13.30;74.70;;;;;;5044507;28;20977;-49
2021/04/19 08:11:13;;;;;;;8.50;7.43;;;13.40;74.30;;;;;;5047008;28;20854;-49
2021/04/19 08:13:40;;;;;;;8.10;6.90;;;13.60;73.00;;;;;;5045980;28;20438;-49
2021/04/19 08:16:20;;;;;;;11.00;8.13;;;13.60;72.50;;;;;;5045101;28;20899;-49
2021/04/19 08:18:51;;;;;;;9.97;7.83;;;13.60;71.10;;;;;;5049046;28;20555;-49
2021/04/19 08:21:27;;;;;;;10.33;7.73;;;13.60;71.00;;;;;;5050425;28;20478;-49
2021/04/19 08:23:54;;;;;;;9.17;8.00;;;13.60;71.20;;;;;;5044977;28;20457;-49
2021/04/19 08:26:21;;;;;;;10.50;8.73;;;13.60;70.60;;;;;;5050107;28;20478;-49
2021/04/19 08:28:49;;;;;;;9.17;7.03;;;13.50;70.80;;;;;;5065629;28;20466;-49
2021/04/19 08:31:17;;;;;;;11.40;8.30;;;13.50;70.80;;;;;;5050500;28;20815;-49
2021/04/19 08:33:44;;;;;;;9.20;7.43;;;13.50;71.70;;;;;;5047551;28;20468;-49
2021/04/19 08:36:14;;;;;;;9.70;7.33;;;13.70;72.90;;;;;;5051168;28;20639;-49
2021/04/19 08:38:43;;;;;;;10.20;6.97;;;14.10;72.30;;;;;;5047636;28;20815;-49
2021/04/19 08:41:10;;;;;;;7.10;6.17;;;14.30;70.30;;;;;;5046516;28;20602;-49
2021/04/19 08:43:38;;;;;;;10.47;8.43;;;14.30;70.00;;;;;;5066705;28;20434;-49
2021/04/19 08:46:06;;;;;;;11.17;8.23;;;14.40;69.90;;;;;;5050425;28;20459;-49
2021/04/19 08:48:34;;;;;;;7.97;6.87;;;14.30;70.00;;;;;;5052220;28;20920;-49
2021/04/19 08:51:04;;;;;;;7.57;6.20;;;14.30;69.40;;;;;;5049059;28;20533;-49
2021/04/19 08:53:31;;;;;;;6.83;6.13;;;14.20;69.50;;;;;;5050298;28;21009;-49
2021/04/19 08:56:02;;;;;;;10.20;6.83;;;14.10;69.50;;;;;;5049950;28;20546;-49
2021/04/19 08:58:33;;;;;;;7.57;6.80;;;14.30;69.50;;;;;;5046703;28;20819;-49
2021/04/19 09:01:00;;;;;;;9.50;6.47;;;14.50;68.40;;;;;;5045235;28;20483;-49
2021/04/19 09:03:27;;;;;;;8.97;6.20;;;14.60;67.80;;;;;;5065736;28;20445;-49
2021/04/19 09:05:53;;;;;;;10.40;6.67;;;15.00;67.10;;;;;;5050579;28;21190;-49
2021/04/19 09:08:20;;;;;;;8.60;6.37;;;15.50;65.50;;;;;;5049093;28;20435;-49
2021/04/19 09:10:59;;;;;;;6.70;5.40;;;15.80;64.30;;;;;;5064713;28;20530;-49
2021/04/19 09:13:40;;;;;;;8.53;6.30;;;15.80;63.80;;;;;;5049188;28;20955;-49
2021/04/19 09:16:20;;;;;;;7.57;6.23;;;16.00;62.70;;;;;;5047680;28;20475;-49
2021/04/19 09:18:58;;;;;;;8.40;6.70;;;15.90;62.60;;;;;;5048496;28;20459;-49
2021/04/19 09:21:44;;;;;;;6.80;5.97;;;16.20;62.30;;;;;;5046626;28;20489;-49
2021/04/19 09:24:12;;;;;;;8.07;6.87;;;16.80;62.00;;;;;;5048727;28;20805;-49
2021/04/19 09:26:46;;;;;;;6.57;5.83;;;17.20;59.90;;;;;;5045647;28;20446;-49
2021/04/19 09:29:24;;;;;;;8.27;6.10;;;17.50;59.10;;;;;;5047138;28;20577;-49
2021/04/19 09:31:56;;;;;;;6.33;5.73;;;18.20;58.30;;;;;;5049719;28;20463;-49
2021/04/19 09:34:44;;;;;;;6.60;5.23;;;18.70;57.70;;;;;;5060502;28;20955;-49
2021/04/19 09:37:21;;;;;;;6.30;5.70;;;18.90;55.50;;;;;;5048183;28;20466;-49
2021/04/19 09:39:49;;;;;;;6.60;5.80;;;18.60;55.40;;;;;;5044540;28;20496;-49
2021/04/19 09:42:18;;;;;;;6.27;5.60;;;18.20;57.00;;;;;;5044361;28;20474;-49
2021/04/19 09:44:54;;;;;;;7.80;5.90;;;17.70;57.30;;;;;;5048596;28;20465;-50
2021/04/19 09:47:47;;;;;;;6.93;6.23;;;17.30;57.90;;;;;;5046558;28;20446;-50
2021/04/19 09:50:20;;;;;;;8.00;5.77;;;17.00;59.00;;;;;;5047949;28;20808;-50
2021/04/19 09:52:52;;;;;;;5.43;4.93;;;16.60;60.10;;;;;;5043746;28;20877;-50
2021/04/19 09:55:20;;;;;;;7.43;5.97;;;16.40;60.70;;;;;;5047216;28;20470;-50
2021/04/19 09:57:47;;;;;;;7.00;5.80;;;16.20;61.00;;;;;;5047533;28;20557;-49
2021/04/19 10:00:16;;;;;;;8.80;6.90;;;16.00;60.30;;;;;;5047459;28;21010;-49
2021/04/19 10:02:43;;;;;;;9.50;6.87;;;15.90;60.50;;;;;;5047987;28;20466;-49
2021/04/19 10:05:11;;;;;;;7.20;6.07;;;15.70;61.30;;;;;;5046023;28;20545;-49
2021/04/19 10:07:44;;;;;;;8.53;6.70;;;15.70;62.10;;;;;;5045880;28;20540;-49
2021/04/19 10:10:17;;;;;;;6.07;5.47;;;16.20;61.70;;;;;;5047543;28;20855;-49
2021/04/19 10:12:47;;;;;;;6.13;5.53;;;16.50;58.60;;;;;;5045936;28;20685;-49
2021/04/19 10:15:21;;;;;;;7.30;5.87;;;16.80;58.70;;;;;;5044759;28;20490;-49
2021/04/19 10:17:48;;;;;;;8.40;4.90;;;17.20;57.40;;;;;;5044358;28;20468;-49
2021/04/19 10:20:27;;;;;;;6.60;4.93;;;17.50;57.00;;;;;;5045072;28;20512;-49
2021/04/19 10:23:12;;;;;;;7.00;4.93;;;17.80;56.20;;;;;;5027426;28;20455;-49
2021/04/19 10:25:47;;;;;;;5.97;5.37;;;18.40;53.50;;;;;;5048407;28;20450;-49
2021/04/19 10:28:35;;;;;;;7.77;6.57;;;19.10;52.30;;;;;;5046609;28;21581;-50
2021/04/19 10:31:15;;;;;;;8.80;7.73;;;19.80;52.10;;;;;;5045522;28;20810;-50
2021/04/19 10:33:46;;;;;;;8.50;6.70;;;20.30;50.80;;;;;;5046815;28;20543;-50
2021/04/19 10:36:24;;;;;;;7.80;7.00;;;20.70;49.20;;;;;;5047039;28;20466;-50
2021/04/19 10:38:54;;;;;;;5.37;4.83;;;20.70;49.40;;;;;;5043484;28;21078;-50
2021/04/19 10:41:35;;;;;;;5.20;4.53;;;21.00;49.10;;;;;;5047945;28;21001;-50
2021/04/19 10:44:03;;;;;;;4.50;4.10;;;21.20;46.70;;;;;;5051521;28;20456;-50
2021/04/19 10:46:34;;;;;;;6.60;5.40;;;21.40;46.10;;;;;;5045411;28;20465;-50
2021/04/19 10:49:02;;;;;;;7.50;5.13;;;21.60;46.70;;;;;;5051178;28;20457;-50
2021/04/19 10:51:32;;;;;;;6.50;5.47;;;21.70;46.90;;;;;;5062971;28;20816;-50
2021/04/19 10:54:06;;;;;;;6.10;5.50;;;21.70;46.60;;;;;;5044664;28;20840;-50
2021/04/19 10:56:33;;;;;;;5.57;5.07;;;21.50;45.50;;;;;;5048621;28;20465;-50
2021/04/19 10:59:07;;;;;;;5.40;4.90;;;21.30;46.00;;;;;;5050209;28;20477;-50
2021/04/19 11:01:36;;;;;;;5.93;5.33;;;21.10;46.90;;;;;;5046109;28;20482;-50
2021/04/19 11:04:08;;;;;;;6.13;5.10;;;21.00;46.00;;;;;;5048139;28;20785;-50
2021/04/19 11:06:36;;;;;;;6.90;5.37;;;21.00;45.60;;;;;;5049812;28;20446;-50
2021/04/19 11:09:15;;;;;;;6.43;5.23;;;21.20;46.00;;;;;;5042970;28;20450;-50
2021/04/19 11:11:44;;;;;;;6.17;5.50;;;21.30;45.40;;;;;;5063243;28;20458;-50
2021/04/19 11:14:22;;;;;;;6.87;5.30;;;21.40;45.00;;;;;;5050071;28;20449;-50
2021/04/19 11:16:55;;;;;;;8.43;7.53;;;21.40;45.60;;;;;;5063535;28;20487;-50
2021/04/19 11:19:28;;;;;;;8.13;7.00;;;21.20;46.30;;;;;;5047969;28;20449;-50
2021/04/19 11:21:55;;;;;;;6.53;5.80;;;20.90;47.10;;;;;;5044426;28;20461;-50
2021/04/19 11:24:33;;;;;;;10.40;7.77;;;20.60;47.90;;;;;;5047577;28;20534;-50
2021/04/19 11:27:07;;;;;;;6.37;5.57;;;20.40;47.90;;;;;;5046190;28;20454;-51
2021/04/19 11:29:35;;;;;;;7.00;5.23;;;20.10;47.60;;;;;;5045554;28;20446;-50
2021/04/19 11:32:02;;;;;;;7.00;6.27;;;19.80;47.50;;;;;;5045178;28;20460;-51
2021/04/19 11:34:38;;;;;;;6.43;5.40;;;19.50;48.00;;;;;;5048834;28;20447;-50
2021/04/19 11:37:31;;;;;;;6.77;6.07;;;19.30;48.20;;;;;;5060813;28;20459;-51
2021/04/19 11:39:58;;;;;;;5.37;4.63;;;19.10;49.90;;;;;;5057368;28;20490;-50
2021/04/19 11:42:36;;;;;;;5.20;4.70;;;19.10;50.30;;;;;;5063265;28;20450;-50
2021/04/19 11:45:04;;;;;;;6.63;5.00;;;19.20;49.30;;;;;;5042869;28;20459;-50
2021/04/19 11:47:33;;;;;;;6.50;5.63;;;19.30;49.20;;;;;;5062986;28;20446;-50
2021/04/19 11:50:00;;;;;;;6.00;5.20;;;19.30;49.60;;;;;;5046712;28;20463;-50
2021/04/19 11:52:26;;;;;;;5.23;4.73;;;19.50;49.20;;;;;;5050287;28;20861;-50
2021/04/19 11:54:52;;;;;;;5.30;4.80;;;19.60;48.90;;;;;;5050875;28;21460;-50
2021/04/19 11:57:19;;;;;;;5.60;3.90;;;19.70;49.50;;;;;;5050015;28;20541;-50
2021/04/19 11:59:45;;;;;;;3.70;3.40;;;19.80;47.90;;;;;;5050474;28;20468;-50
2021/04/19 12:02:13;;;;;;;4.70;4.07;;;19.90;47.90;;;;;;5051612;28;20522;-51
2021/04/19 12:04:40;;;;;;;5.97;4.07;;;19.90;48.20;;;;;;5047421;28;20677;-50
2021/04/19 12:07:06;;;;;;;4.97;4.20;;;20.00;49.10;;;;;;5052786;28;20452;-51
2021/04/19 12:09:32;;;;;;;5.47;4.47;;;20.10;48.60;;;;;;5050848;28;20838;-50
2021/04/19 12:11:59;;;;;;;5.40;4.40;;;20.20;47.60;;;;;;5053670;28;21094;-50
2021/04/19 12:14:26;;;;;;;5.47;4.40;;;20.20;48.20;;;;;;5049367;28;20462;-50
2021/04/19 12:16:54;;;;;;;6.50;4.63;;;20.30;47.70;;;;;;5045723;28;20533;-50
2021/04/19 12:19:23;;;;;;;6.50;4.90;;;20.40;46.20;;;;;;5048307;28;20456;-50
2021/04/19 12:21:50;;;;;;;4.50;3.60;;;20.50;46.40;;;;;;5066454;28;20654;-50
2021/04/19 12:24:17;;;;;;;6.20;4.03;;;20.50;46.10;;;;;;5050455;28;20474;-51
2021/04/19 12:26:43;;;;;;;4.63;4.23;;;20.50;45.90;;;;;;5045475;28;20925;-51
2021/04/19 12:29:11;;;;;;;5.53;4.77;;;20.60;45.90;;;;;;5066762;28;20537;-51
2021/04/19 12:31:38;;;;;;;4.23;3.83;;;20.60;47.40;;;;;;5051914;28;20447;-51
2021/04/19 12:34:04;;;;;;;5.83;4.90;;;20.50;48.00;;;;;;5051714;28;20450;-51
2021/04/19 12:36:33;;;;;;;4.30;3.60;;;20.40;47.70;;;;;;5065934;28;21012;-51
2021/04/19 12:39:05;;;;;;;5.47;4.57;;;20.30;47.20;;;;;;5064859;28;20459;-51
2021/04/19 12:41:32;;;;;;;5.83;4.13;;;20.30;48.60;;;;;;5049322;28;20493;-51
2021/04/19 12:43:59;;;;;;;4.17;3.77;;;20.30;48.70;;;;;;5048811;28;20928;-50
2021/04/19 12:46:26;;;;;;;5.27;4.30;;;20.40;47.10;;;;;;5066935;28;20482;-51
2021/04/19 12:48:54;;;;;;;6.10;4.47;;;20.50;46.00;;;;;;5049298;28;20595;-51
2021/04/19 12:51:23;;;;;;;3.70;3.40;;;20.50;45.90;;;;;;5049328;28;20462;-51
2021/04/19 12:53:50;;;;;;;3.60;3.30;;;20.50;45.30;;;;;;5050355;28;20831;-51